sensor_id;sensor_type;location;lat;lon;timestamp;pressure;altitude;pressure_sealevel;temperature;humidity
10261;BME280;5175;42.606;23.388;2023-09-19T00:02:03;94174.97;;;15.35;100.00
10261;BME280;5175;42.606;23.388;2023-09-19T00:04:31;94174.72;;;15.18;100.00
10261;BME280;5175;42.606;23.388;2023-09-19T00:06:58;94165.47;;;14.97;100.00
10261;BME280;5175;42.606;23.388;2023-09-19T00:09:25;94179.13;;;15.14;100.00
10261;BME280;5175;42.606;23.388;2023-09-19T00:11:52;94179.47;;;15.07;100.00
10261;BME280;5175;42.606;23.388;2023-09-19T00:14:19;94180.38;;;15.03;100.00
10261;BME280;5175;42.606;23.388;2023-09-19T00:16:45;94155.84;;;14.77;100.00
10261;BME280;5175;42.606;23.388;2023-09-19T00:19:14;94167.72;;;14.90;100.00
10261;BME280;5175;42.606;23.388;2023-09-19T00:21:41;94171.50;;;14.89;100.00
10261;BME280;5175;42.606;23.388;2023-09-19T00:24:08;94167.16;;;15.07;100.00
10261;BME280;5175;42.606;23.388;2023-09-19T00:26:35;94170.34;;;15.09;100.00
10261;BME280;5175;42.606;23.388;2023-09-19T00:29:03;94162.25;;;14.95;100.00
10261;BME280;5175;42.606;23.388;2023-09-19T00:31:30;94161.97;;;14.96;100.00
10261;BME280;5175;42.606;23.388;2023-09-19T00:33:57;94163.56;;;15.11;100.00
10261;BME280;5175;42.606;23.388;2023-09-19T00:36:29;94158.06;;;15.02;100.00
10261;BME280;5175;42.606;23.388;2023-09-19T00:38:55;94161.34;;;14.86;100.00
10261;BME280;5175;42.606;23.388;2023-09-19T00:41:22;94157.22;;;14.75;100.00
10261;BME280;5175;42.606;23.388;2023-09-19T00:43:50;94151.41;;;14.86;100.00
10261;BME280;5175;42.606;23.388;2023-09-19T00:46:17;94155.94;;;14.72;100.00
10261;BME280;5175;42.606;23.388;2023-09-19T00:48:43;94150.19;;;14.79;100.00
10261;BME280;5175;42.606;23.388;2023-09-19T00:51:11;94154.03;;;14.73;100.00
10261;BME280;5175;42.606;23.388;2023-09-19T00:53:40;94138.28;;;14.66;100.00
10261;BME280;5175;42.606;23.388;2023-09-19T00:56:11;94128.69;;;14.47;100.00
10261;BME280;5175;42.606;23.388;2023-09-19T00:58:38;94147.47;;;14.65;100.00
10261;BME280;5175;42.606;23.388;2023-09-19T01:01:05;94144.19;;;14.68;100.00
10261;BME280;5175;42.606;23.388;2023-09-19T01:03:33;94145.84;;;14.64;100.00
10261;BME280;5175;42.606;23.388;2023-09-19T01:05:59;94151.66;;;14.71;100.00
10261;BME280;5175;42.606;23.388;2023-09-19T01:08:27;94148.97;;;14.71;100.00
10261;BME280;5175;42.606;23.388;2023-09-19T01:11:01;94141.91;;;14.75;100.00
10261;BME280;5175;42.606;23.388;2023-09-19T01:13:35;94151.13;;;14.69;100.00
10261;BME280;5175;42.606;23.388;2023-09-19T01:16:13;94135.69;;;14.61;100.00
10261;BME280;5175;42.606;23.388;2023-09-19T01:18:50;94148.88;;;14.76;100.00
10261;BME280;5175;42.606;23.388;2023-09-19T01:21:23;94134.63;;;14.62;100.00
10261;BME280;5175;42.606;23.388;2023-09-19T01:24:10;94141.16;;;14.56;100.00
10261;BME280;5175;42.606;23.388;2023-09-19T01:26:56;94144.28;;;14.63;100.00
10261;BME280;5175;42.606;23.388;2023-09-19T01:29:36;94139.31;;;14.70;100.00
10261;BME280;5175;42.606;23.388;2023-09-19T01:32:08;94134.13;;;14.60;100.00
10261;BME280;5175;42.606;23.388;2023-09-19T01:34:48;94147.63;;;14.55;100.00
10261;BME280;5175;42.606;23.388;2023-09-19T01:37:16;94145.44;;;14.57;100.00
10261;BME280;5175;42.606;23.388;2023-09-19T01:39:46;94144.75;;;14.33;100.00
10261;BME280;5175;42.606;23.388;2023-09-19T01:42:20;94155.78;;;14.50;100.00
10261;BME280;5175;42.606;23.388;2023-09-19T01:44:55;94140.75;;;14.49;100.00
10261;BME280;5175;42.606;23.388;2023-09-19T01:47:29;94133.16;;;14.37;100.00
10261;BME280;5175;42.606;23.388;2023-09-19T01:50:05;94112.59;;;14.28;100.00
10261;BME280;5175;42.606;23.388;2023-09-19T01:52:38;94133.44;;;14.36;100.00
10261;BME280;5175;42.606;23.388;2023-09-19T01:55:09;94134.28;;;14.50;100.00
10261;BME280;5175;42.606;23.388;2023-09-19T01:57:48;94134.69;;;14.57;100.00
10261;BME280;5175;42.606;23.388;2023-09-19T02:00:18;94136.22;;;14.63;100.00
10261;BME280;5175;42.606;23.388;2023-09-19T02:02:48;94127.97;;;14.41;100.00
10261;BME280;5175;42.606;23.388;2023-09-19T02:05:22;94120.94;;;14.26;100.00
10261;BME280;5175;42.606;23.388;2023-09-19T02:07:49;94132.78;;;14.44;100.00
10261;BME280;5175;42.606;23.388;2023-09-19T02:10:16;94140.16;;;14.52;100.00
10261;BME280;5175;42.606;23.388;2023-09-19T02:12:43;94140.16;;;14.52;100.00
10261;BME280;5175;42.606;23.388;2023-09-19T02:15:10;94149.84;;;14.67;100.00
10261;BME280;5175;42.606;23.388;2023-09-19T02:17:38;94150.66;;;14.67;100.00
10261;BME280;5175;42.606;23.388;2023-09-19T02:20:07;94147.91;;;14.54;100.00
10261;BME280;5175;42.606;23.388;2023-09-19T02:22:36;94143.34;;;14.54;100.00
10261;BME280;5175;42.606;23.388;2023-09-19T02:25:04;94147.06;;;14.58;100.00
10261;BME280;5175;42.606;23.388;2023-09-19T02:27:32;94147.81;;;14.59;100.00
10261;BME280;5175;42.606;23.388;2023-09-19T02:29:59;94150.19;;;14.47;100.00
10261;BME280;5175;42.606;23.388;2023-09-19T02:32:27;94143.31;;;14.40;100.00
10261;BME280;5175;42.606;23.388;2023-09-19T02:34:55;94146.06;;;14.35;100.00
10261;BME280;5175;42.606;23.388;2023-09-19T02:37:24;94136.41;;;14.34;100.00
10261;BME280;5175;42.606;23.388;2023-09-19T02:39:51;94122.69;;;14.36;100.00
10261;BME280;5175;42.606;23.388;2023-09-19T02:42:18;94126.91;;;14.05;100.00
10261;BME280;5175;42.606;23.388;2023-09-19T02:44:45;94117.97;;;14.28;100.00
10261;BME280;5175;42.606;23.388;2023-09-19T02:47:13;94115.81;;;14.30;100.00
10261;BME280;5175;42.606;23.388;2023-09-19T02:49:42;94113.13;;;14.11;100.00
10261;BME280;5175;42.606;23.388;2023-09-19T02:52:08;94101.44;;;14.21;100.00
10261;BME280;5175;42.606;23.388;2023-09-19T02:54:37;94110.59;;;14.20;100.00
10261;BME280;5175;42.606;23.388;2023-09-19T02:57:04;94097.25;;;14.15;100.00
10261;BME280;5175;42.606;23.388;2023-09-19T02:59:32;94086.31;;;14.11;100.00
10261;BME280;5175;42.606;23.388;2023-09-19T03:02:02;94103.72;;;14.32;100.00
10261;BME280;5175;42.606;23.388;2023-09-19T03:04:30;94096.34;;;14.38;100.00
10261;BME280;5175;42.606;23.388;2023-09-19T03:06:58;94089.97;;;14.34;100.00
10261;BME280;5175;42.606;23.388;2023-09-19T03:09:26;94093.47;;;14.34;100.00
10261;BME280;5175;42.606;23.388;2023-09-19T03:11:54;94089.50;;;14.32;100.00
10261;BME280;5175;42.606;23.388;2023-09-19T03:14:21;94089.69;;;14.35;100.00
10261;BME280;5175;42.606;23.388;2023-09-19T03:16:49;94087.94;;;14.26;100.00
10261;BME280;5175;42.606;23.388;2023-09-19T03:19:17;94086.63;;;14.23;100.00
10261;BME280;5175;42.606;23.388;2023-09-19T03:21:46;94088.81;;;14.40;100.00
10261;BME280;5175;42.606;23.388;2023-09-19T03:24:14;94087.53;;;14.51;100.00
10261;BME280;5175;42.606;23.388;2023-09-19T03:26:41;94096.97;;;14.49;100.00
10261;BME280;5175;42.606;23.388;2023-09-19T03:29:09;94093.03;;;14.60;100.00
10261;BME280;5175;42.606;23.388;2023-09-19T03:31:36;94100.00;;;14.61;100.00
10261;BME280;5175;42.606;23.388;2023-09-19T03:34:03;94095.22;;;14.58;100.00
10261;BME280;5175;42.606;23.388;2023-09-19T03:36:30;94087.97;;;14.58;100.00
10261;BME280;5175;42.606;23.388;2023-09-19T03:38:59;94096.81;;;14.59;100.00
10261;BME280;5175;42.606;23.388;2023-09-19T03:41:26;94094.56;;;14.66;100.00
10261;BME280;5175;42.606;23.388;2023-09-19T03:43:53;94090.31;;;14.46;100.00
10261;BME280;5175;42.606;23.388;2023-09-19T03:46:21;94087.53;;;14.37;100.00
10261;BME280;5175;42.606;23.388;2023-09-19T03:48:48;94097.59;;;14.46;100.00
10261;BME280;5175;42.606;23.388;2023-09-19T03:51:15;94094.91;;;14.46;100.00
10261;BME280;5175;42.606;23.388;2023-09-19T03:53:42;94094.44;;;14.57;100.00
10261;BME280;5175;42.606;23.388;2023-09-19T03:56:09;94097.09;;;14.57;100.00
10261;BME280;5175;42.606;23.388;2023-09-19T03:58:35;94101.19;;;14.55;100.00
10261;BME280;5175;42.606;23.388;2023-09-19T04:01:04;94091.25;;;14.55;100.00
10261;BME280;5175;42.606;23.388;2023-09-19T04:03:33;94098.16;;;14.43;100.00
10261;BME280;5175;42.606;23.388;2023-09-19T04:06:11;94106.25;;;14.56;100.00
10261;BME280;5175;42.606;23.388;2023-09-19T04:08:38;94111.50;;;14.48;100.00
10261;BME280;5175;42.606;23.388;2023-09-19T04:11:05;94109.84;;;14.33;100.00
10261;BME280;5175;42.606;23.388;2023-09-19T04:13:31;94117.47;;;14.26;100.00
10261;BME280;5175;42.606;23.388;2023-09-19T04:15:58;94121.84;;;14.22;100.00
10261;BME280;5175;42.606;23.388;2023-09-19T04:18:25;94121.34;;;14.01;100.00
10261;BME280;5175;42.606;23.388;2023-09-19T04:20:53;94124.66;;;13.93;100.00
10261;BME280;5175;42.606;23.388;2023-09-19T04:23:21;94120.75;;;13.86;100.00
10261;BME280;5175;42.606;23.388;2023-09-19T04:25:48;94133.59;;;13.89;100.00
10261;BME280;5175;42.606;23.388;2023-09-19T04:28:14;94134.81;;;13.96;100.00
10261;BME280;5175;42.606;23.388;2023-09-19T04:30:42;94125.97;;;13.96;100.00
10261;BME280;5175;42.606;23.388;2023-09-19T04:33:09;94129.09;;;14.03;100.00
10261;BME280;5175;42.606;23.388;2023-09-19T04:35:37;94134.88;;;14.10;100.00
10261;BME280;5175;42.606;23.388;2023-09-19T04:38:05;94132.66;;;14.17;100.00
10261;BME280;5175;42.606;23.388;2023-09-19T04:40:32;94131.75;;;14.21;100.00
10261;BME280;5175;42.606;23.388;2023-09-19T04:42:59;94120.91;;;14.31;100.00
10261;BME280;5175;42.606;23.388;2023-09-19T04:45:27;94105.00;;;14.35;100.00
10261;BME280;5175;42.606;23.388;2023-09-19T04:47:54;94115.19;;;14.52;100.00
10261;BME280;5175;42.606;23.388;2023-09-19T04:50:21;94117.06;;;14.51;100.00
10261;BME280;5175;42.606;23.388;2023-09-19T04:52:50;94120.16;;;14.45;100.00
10261;BME280;5175;42.606;23.388;2023-09-19T04:55:18;94116.78;;;14.53;100.00
10261;BME280;5175;42.606;23.388;2023-09-19T04:57:46;94116.00;;;14.52;100.00
10261;BME280;5175;42.606;23.388;2023-09-19T05:00:14;94116.91;;;14.61;100.00
10261;BME280;5175;42.606;23.388;2023-09-19T05:02:42;94113.44;;;14.74;100.00
10261;BME280;5175;42.606;23.388;2023-09-19T05:05:09;94107.91;;;14.84;100.00
10261;BME280;5175;42.606;23.388;2023-09-19T05:07:36;94100.94;;;14.83;100.00
10261;BME280;5175;42.606;23.388;2023-09-19T05:10:04;94097.16;;;14.84;100.00
10261;BME280;5175;42.606;23.388;2023-09-19T05:12:34;94095.78;;;15.00;100.00
10261;BME280;5175;42.606;23.388;2023-09-19T05:15:01;94098.59;;;15.23;100.00
10261;BME280;5175;42.606;23.388;2023-09-19T05:17:28;94099.97;;;15.34;100.00
10261;BME280;5175;42.606;23.388;2023-09-19T05:19:55;94102.66;;;15.34;100.00
10261;BME280;5175;42.606;23.388;2023-09-19T05:22:22;94092.81;;;15.43;100.00
10261;BME280;5175;42.606;23.388;2023-09-19T05:24:50;94095.69;;;15.60;100.00
10261;BME280;5175;42.606;23.388;2023-09-19T05:27:18;94097.56;;;15.73;100.00
10261;BME280;5175;42.606;23.388;2023-09-19T05:29:47;94093.16;;;15.77;100.00
10261;BME280;5175;42.606;23.388;2023-09-19T05:32:14;94082.22;;;15.74;100.00
10261;BME280;5175;42.606;23.388;2023-09-19T05:34:41;94098.03;;;15.89;100.00
10261;BME280;5175;42.606;23.388;2023-09-19T05:37:08;94088.00;;;16.03;100.00
10261;BME280;5175;42.606;23.388;2023-09-19T05:39:34;94084.69;;;16.06;100.00
10261;BME280;5175;42.606;23.388;2023-09-19T05:42:03;94086.56;;;16.19;100.00
10261;BME280;5175;42.606;23.388;2023-09-19T05:44:29;94072.03;;;16.28;100.00
10261;BME280;5175;42.606;23.388;2023-09-19T05:46:59;94080.53;;;16.44;100.00
10261;BME280;5175;42.606;23.388;2023-09-19T05:49:26;94085.78;;;16.63;100.00
10261;BME280;5175;42.606;23.388;2023-09-19T05:51:53;94089.50;;;16.75;100.00
10261;BME280;5175;42.606;23.388;2023-09-19T05:54:24;94079.19;;;16.77;100.00
10261;BME280;5175;42.606;23.388;2023-09-19T05:56:51;94087.25;;;17.00;100.00
10261;BME280;5175;42.606;23.388;2023-09-19T05:59:18;94084.69;;;16.95;100.00
10261;BME280;5175;42.606;23.388;2023-09-19T06:01:45;94090.44;;;16.79;100.00
10261;BME280;5175;42.606;23.388;2023-09-19T06:04:13;94082.91;;;16.90;100.00
10261;BME280;5175;42.606;23.388;2023-09-19T06:06:40;94081.25;;;17.11;100.00
10261;BME280;5175;42.606;23.388;2023-09-19T06:09:07;94073.03;;;17.16;100.00
10261;BME280;5175;42.606;23.388;2023-09-19T06:11:34;94071.31;;;17.20;100.00
10261;BME280;5175;42.606;23.388;2023-09-19T06:14:01;94080.22;;;17.29;100.00
10261;BME280;5175;42.606;23.388;2023-09-19T06:16:28;94072.78;;;17.35;100.00
10261;BME280;5175;42.606;23.388;2023-09-19T06:18:55;94084.38;;;17.44;100.00
10261;BME280;5175;42.606;23.388;2023-09-19T06:21:23;94075.50;;;17.43;100.00
10261;BME280;5175;42.606;23.388;2023-09-19T06:23:52;94076.94;;;17.49;100.00
10261;BME280;5175;42.606;23.388;2023-09-19T06:26:19;94086.41;;;17.69;100.00
10261;BME280;5175;42.606;23.388;2023-09-19T06:28:45;94080.38;;;17.81;100.00
10261;BME280;5175;42.606;23.388;2023-09-19T06:31:12;94082.75;;;17.91;100.00
10261;BME280;5175;42.606;23.388;2023-09-19T06:33:39;94077.66;;;17.98;100.00
10261;BME280;5175;42.606;23.388;2023-09-19T06:36:06;94082.00;;;18.07;100.00
10261;BME280;5175;42.606;23.388;2023-09-19T06:38:34;94079.75;;;18.09;100.00
10261;BME280;5175;42.606;23.388;2023-09-19T06:41:02;94074.66;;;18.25;100.00
10261;BME280;5175;42.606;23.388;2023-09-19T06:43:30;94071.66;;;18.52;100.00
10261;BME280;5175;42.606;23.388;2023-09-19T06:45:58;94080.97;;;18.72;100.00
10261;BME280;5175;42.606;23.388;2023-09-19T06:48:25;94084.47;;;18.81;100.00
10261;BME280;5175;42.606;23.388;2023-09-19T06:50:53;94084.28;;;18.95;100.00
10261;BME280;5175;42.606;23.388;2023-09-19T06:53:20;94085.16;;;19.16;100.00
10261;BME280;5175;42.606;23.388;2023-09-19T06:55:50;94093.44;;;19.11;97.36
10261;BME280;5175;42.606;23.388;2023-09-19T06:58:17;94086.19;;;19.03;100.00
10261;BME280;5175;42.606;23.388;2023-09-19T07:00:44;94089.00;;;19.06;100.00
10261;BME280;5175;42.606;23.388;2023-09-19T07:03:13;94088.53;;;19.04;100.00
10261;BME280;5175;42.606;23.388;2023-09-19T07:05:41;94087.25;;;19.10;100.00
10261;BME280;5175;42.606;23.388;2023-09-19T07:08:09;94097.03;;;19.32;100.00
10261;BME280;5175;42.606;23.388;2023-09-19T07:10:38;94097.56;;;19.17;98.89
10261;BME280;5175;42.606;23.388;2023-09-19T07:13:08;94100.06;;;19.30;96.96
10261;BME280;5175;42.606;23.388;2023-09-19T07:15:37;94117.25;;;19.26;97.78
10261;BME280;5175;42.606;23.388;2023-09-19T07:18:05;94117.47;;;19.12;97.63
10261;BME280;5175;42.606;23.388;2023-09-19T07:20:36;94116.31;;;19.22;98.32
10261;BME280;5175;42.606;23.388;2023-09-19T07:23:03;94108.53;;;19.20;97.12
10261;BME280;5175;42.606;23.388;2023-09-19T07:25:31;94109.75;;;19.31;93.94
10261;BME280;5175;42.606;23.388;2023-09-19T07:27:58;94109.91;;;19.44;95.46
10261;BME280;5175;42.606;23.388;2023-09-19T07:30:27;94106.72;;;19.42;96.07
10261;BME280;5175;42.606;23.388;2023-09-19T07:32:54;94105.47;;;19.39;95.30
10261;BME280;5175;42.606;23.388;2023-09-19T07:35:21;94099.88;;;19.35;95.78
10261;BME280;5175;42.606;23.388;2023-09-19T07:37:48;94112.47;;;19.31;95.09
10261;BME280;5175;42.606;23.388;2023-09-19T07:40:17;94113.56;;;19.39;96.39
10261;BME280;5175;42.606;23.388;2023-09-19T07:42:44;94114.25;;;19.27;95.24
10261;BME280;5175;42.606;23.388;2023-09-19T07:45:12;94107.63;;;19.54;94.27
10261;BME280;5175;42.606;23.388;2023-09-19T07:47:45;94113.22;;;19.78;92.66
10261;BME280;5175;42.606;23.388;2023-09-19T07:50:12;94115.97;;;19.70;91.66
10261;BME280;5175;42.606;23.388;2023-09-19T07:52:39;94115.88;;;19.58;92.52
10261;BME280;5175;42.606;23.388;2023-09-19T07:55:06;94122.28;;;19.53;93.82
10261;BME280;5175;42.606;23.388;2023-09-19T07:57:36;94117.59;;;19.62;92.21
10261;BME280;5175;42.606;23.388;2023-09-19T08:00:04;94119.09;;;19.80;91.95
10261;BME280;5175;42.606;23.388;2023-09-19T08:02:34;94101.28;;;19.50;93.13
10261;BME280;5175;42.606;23.388;2023-09-19T08:05:05;94120.19;;;19.88;90.43
10261;BME280;5175;42.606;23.388;2023-09-19T08:07:35;94116.09;;;19.82;91.11
10261;BME280;5175;42.606;23.388;2023-09-19T08:10:03;94122.00;;;19.75;91.95
10261;BME280;5175;42.606;23.388;2023-09-19T08:12:29;94119.09;;;20.10;91.24
10261;BME280;5175;42.606;23.388;2023-09-19T08:14:55;94124.47;;;20.18;89.89
10261;BME280;5175;42.606;23.388;2023-09-19T08:17:22;94118.00;;;20.31;88.79
10261;BME280;5175;42.606;23.388;2023-09-19T08:19:49;94116.94;;;20.24;88.72
10261;BME280;5175;42.606;23.388;2023-09-19T08:22:19;94106.38;;;20.31;89.42
10261;BME280;5175;42.606;23.388;2023-09-19T08:24:47;94107.56;;;20.42;85.92
10261;BME280;5175;42.606;23.388;2023-09-19T08:27:14;94104.25;;;20.36;88.29
10261;BME280;5175;42.606;23.388;2023-09-19T08:29:43;94097.56;;;20.54;86.07
10261;BME280;5175;42.606;23.388;2023-09-19T08:32:10;94089.06;;;20.44;87.17
10261;BME280;5175;42.606;23.388;2023-09-19T08:34:37;94089.09;;;20.56;88.32
10261;BME280;5175;42.606;23.388;2023-09-19T08:37:04;94089.53;;;20.79;86.33
10261;BME280;5175;42.606;23.388;2023-09-19T08:39:32;94092.25;;;21.11;84.87
10261;BME280;5175;42.606;23.388;2023-09-19T08:42:01;94095.41;;;21.13;86.23
10261;BME280;5175;42.606;23.388;2023-09-19T08:44:28;94098.69;;;21.19;83.36
10261;BME280;5175;42.606;23.388;2023-09-19T08:47:03;94086.41;;;21.34;84.94
10261;BME280;5175;42.606;23.388;2023-09-19T08:49:41;94101.22;;;21.36;82.77
10261;BME280;5175;42.606;23.388;2023-09-19T08:52:20;94104.94;;;21.32;84.03
10261;BME280;5175;42.606;23.388;2023-09-19T08:54:52;94089.47;;;21.56;81.76
10261;BME280;5175;42.606;23.388;2023-09-19T08:57:19;94094.00;;;21.76;80.91
10261;BME280;5175;42.606;23.388;2023-09-19T08:59:48;94093.78;;;21.94;80.13
10261;BME280;5175;42.606;23.388;2023-09-19T09:02:15;94091.72;;;21.78;81.81
10261;BME280;5175;42.606;23.388;2023-09-19T09:04:43;94093.41;;;21.83;81.07
10261;BME280;5175;42.606;23.388;2023-09-19T09:07:11;94093.78;;;21.94;79.60
10261;BME280;5175;42.606;23.388;2023-09-19T09:09:39;94091.28;;;22.13;80.05
10261;BME280;5175;42.606;23.388;2023-09-19T09:12:10;94081.91;;;21.86;79.02
10261;BME280;5175;42.606;23.388;2023-09-19T09:14:38;94082.63;;;22.23;79.79
10261;BME280;5175;42.606;23.388;2023-09-19T09:17:05;94083.63;;;22.30;79.44
10261;BME280;5175;42.606;23.388;2023-09-19T09:19:32;94080.06;;;22.42;80.94
10261;BME280;5175;42.606;23.388;2023-09-19T09:22:06;94079.31;;;22.41;78.67
10261;BME280;5175;42.606;23.388;2023-09-19T09:24:33;94078.06;;;22.39;79.67
10261;BME280;5175;42.606;23.388;2023-09-19T09:27:04;94069.25;;;22.30;78.64
10261;BME280;5175;42.606;23.388;2023-09-19T09:29:45;94082.97;;;22.61;78.75
10261;BME280;5175;42.606;23.388;2023-09-19T09:32:19;94071.97;;;22.70;77.92
10261;BME280;5175;42.606;23.388;2023-09-19T09:34:49;94062.41;;;22.76;74.48
10261;BME280;5175;42.606;23.388;2023-09-19T09:37:16;94075.91;;;23.00;74.40
10261;BME280;5175;42.606;23.388;2023-09-19T09:39:55;94062.38;;;22.88;74.00
10261;BME280;5175;42.606;23.388;2023-09-19T09:42:31;94063.97;;;23.04;73.46
10261;BME280;5175;42.606;23.388;2023-09-19T09:45:15;94059.72;;;22.91;74.90
10261;BME280;5175;42.606;23.388;2023-09-19T09:47:44;94054.72;;;22.93;74.57
10261;BME280;5175;42.606;23.388;2023-09-19T09:50:26;94061.63;;;23.19;73.60
10261;BME280;5175;42.606;23.388;2023-09-19T09:53:09;94051.44;;;23.16;76.20
10261;BME280;5175;42.606;23.388;2023-09-19T09:56:03;94064.63;;;23.45;74.74
10261;BME280;5175;42.606;23.388;2023-09-19T09:58:32;94052.50;;;23.42;73.87
10261;BME280;5175;42.606;23.388;2023-09-19T10:01:02;94048.78;;;23.82;71.24
10261;BME280;5175;42.606;23.388;2023-09-19T10:03:35;94040.25;;;23.83;71.25
10261;BME280;5175;42.606;23.388;2023-09-19T10:06:06;94037.50;;;23.83;76.63
10261;BME280;5175;42.606;23.388;2023-09-19T10:09:03;94038.69;;;23.82;75.56
10261;BME280;5175;42.606;23.388;2023-09-19T10:11:42;94038.56;;;23.94;74.76
10261;BME280;5175;42.606;23.388;2023-09-19T10:14:15;94047.16;;;24.12;70.01
10261;BME280;5175;42.606;23.388;2023-09-19T10:16:46;94044.09;;;23.98;71.22
10261;BME280;5175;42.606;23.388;2023-09-19T10:19:21;94043.88;;;23.72;73.47
10261;BME280;5175;42.606;23.388;2023-09-19T10:21:50;94051.41;;;23.78;70.22
10261;BME280;5175;42.606;23.388;2023-09-19T10:24:19;94046.06;;;23.66;70.81
10261;BME280;5175;42.606;23.388;2023-09-19T10:26:46;94040.34;;;23.71;69.70
10261;BME280;5175;42.606;23.388;2023-09-19T10:29:17;94038.09;;;23.57;75.53
10261;BME280;5175;42.606;23.388;2023-09-19T10:31:47;94034.28;;;23.78;71.82
10261;BME280;5175;42.606;23.388;2023-09-19T10:34:14;94039.25;;;23.91;72.27
10261;BME280;5175;42.606;23.388;2023-09-19T10:36:44;94037.25;;;23.88;74.53
10261;BME280;5175;42.606;23.388;2023-09-19T10:39:14;94037.84;;;23.97;70.54
10261;BME280;5175;42.606;23.388;2023-09-19T10:41:49;94004.88;;;23.67;70.90
10261;BME280;5175;42.606;23.388;2023-09-19T10:44:21;94028.59;;;24.02;70.42
10261;BME280;5175;42.606;23.388;2023-09-19T10:46:51;94016.69;;;23.91;70.65
10261;BME280;5175;42.606;23.388;2023-09-19T10:49:19;94025.34;;;23.96;69.39
10261;BME280;5175;42.606;23.388;2023-09-19T10:51:47;94026.75;;;24.06;67.53
10261;BME280;5175;42.606;23.388;2023-09-19T10:54:18;94030.09;;;24.15;66.79
10261;BME280;5175;42.606;23.388;2023-09-19T10:56:49;94025.72;;;23.95;67.85
10261;BME280;5175;42.606;23.388;2023-09-19T10:59:18;94020.69;;;23.97;69.03
10261;BME280;5175;42.606;23.388;2023-09-19T11:01:47;94023.50;;;24.16;67.97
10261;BME280;5175;42.606;23.388;2023-09-19T11:04:31;94016.84;;;23.98;68.76
10261;BME280;5175;42.606;23.388;2023-09-19T11:07:00;94017.25;;;24.15;68.62
10261;BME280;5175;42.606;23.388;2023-09-19T11:09:43;94019.34;;;24.06;69.44
10261;BME280;5175;42.606;23.388;2023-09-19T11:12:11;94009.50;;;24.17;68.63
10261;BME280;5175;42.606;23.388;2023-09-19T11:14:40;94014.47;;;24.31;68.19
10261;BME280;5175;42.606;23.388;2023-09-19T11:17:38;94006.13;;;24.43;66.89
10261;BME280;5175;42.606;23.388;2023-09-19T11:20:24;94007.69;;;24.63;68.72
10261;BME280;5175;42.606;23.388;2023-09-19T11:23:20;94003.19;;;24.52;63.33
10261;BME280;5175;42.606;23.388;2023-09-19T11:25:51;94005.50;;;24.50;64.15
10261;BME280;5175;42.606;23.388;2023-09-19T11:28:29;93991.59;;;24.58;67.71
10261;BME280;5175;42.606;23.388;2023-09-19T11:30:56;93987.50;;;24.68;70.61
10261;BME280;5175;42.606;23.388;2023-09-19T11:33:25;93998.16;;;24.73;65.40
10261;BME280;5175;42.606;23.388;2023-09-19T11:36:05;93990.91;;;24.80;64.71
10261;BME280;5175;42.606;23.388;2023-09-19T11:38:58;93981.75;;;24.73;66.26
10261;BME280;5175;42.606;23.388;2023-09-19T11:41:36;93980.53;;;24.70;64.97
10261;BME280;5175;42.606;23.388;2023-09-19T11:44:32;93977.78;;;24.89;64.30
10261;BME280;5175;42.606;23.388;2023-09-19T11:47:01;93978.47;;;24.83;66.70
10261;BME280;5175;42.606;23.388;2023-09-19T11:49:29;93968.56;;;24.98;65.47
10261;BME280;5175;42.606;23.388;2023-09-19T11:51:59;93970.13;;;24.99;62.42
10261;BME280;5175;42.606;23.388;2023-09-19T11:54:30;93959.66;;;25.01;64.01
10261;BME280;5175;42.606;23.388;2023-09-19T11:56:58;93955.22;;;24.93;62.11
10261;BME280;5175;42.606;23.388;2023-09-19T11:59:26;93946.91;;;25.08;60.67
10261;BME280;5175;42.606;23.388;2023-09-19T12:01:54;93951.91;;;25.03;61.84
10261;BME280;5175;42.606;23.388;2023-09-19T12:04:33;93953.31;;;24.74;62.77
10261;BME280;5175;42.606;23.388;2023-09-19T12:07:04;93946.50;;;24.64;63.49
10261;BME280;5175;42.606;23.388;2023-09-19T12:09:38;93943.69;;;24.38;66.64
10261;BME280;5175;42.606;23.388;2023-09-19T12:12:05;93949.56;;;24.40;66.40
10261;BME280;5175;42.606;23.388;2023-09-19T12:14:32;93950.94;;;24.50;68.44
10261;BME280;5175;42.606;23.388;2023-09-19T12:17:00;93944.84;;;24.79;63.40
10261;BME280;5175;42.606;23.388;2023-09-19T12:19:29;93946.84;;;24.82;65.42
10261;BME280;5175;42.606;23.388;2023-09-19T12:21:59;93933.91;;;25.02;63.89
10261;BME280;5175;42.606;23.388;2023-09-19T12:24:31;93932.28;;;25.20;66.06
10261;BME280;5175;42.606;23.388;2023-09-19T12:27:01;93935.84;;;25.46;58.57
10261;BME280;5175;42.606;23.388;2023-09-19T12:29:30;93931.19;;;25.47;62.92
10261;BME280;5175;42.606;23.388;2023-09-19T12:31:57;93923.50;;;25.56;61.78
10261;BME280;5175;42.606;23.388;2023-09-19T12:34:25;93927.00;;;25.57;64.43
10261;BME280;5175;42.606;23.388;2023-09-19T12:37:07;93927.09;;;25.90;62.02
10261;BME280;5175;42.606;23.388;2023-09-19T12:39:40;93918.88;;;26.20;61.17
10261;BME280;5175;42.606;23.388;2023-09-19T12:42:14;93917.97;;;26.42;59.21
10261;BME280;5175;42.606;23.388;2023-09-19T12:44:43;93879.28;;;26.43;54.62
10261;BME280;5175;42.606;23.388;2023-09-19T12:47:11;93913.84;;;26.58;57.76
10261;BME280;5175;42.606;23.388;2023-09-19T12:50:09;93909.78;;;26.45;54.96
10261;BME280;5175;42.606;23.388;2023-09-19T12:52:41;93883.88;;;26.02;60.11
10261;BME280;5175;42.606;23.388;2023-09-19T12:55:21;93891.75;;;26.41;57.07
10261;BME280;5175;42.606;23.388;2023-09-19T12:58:08;93898.59;;;26.57;59.05
10261;BME280;5175;42.606;23.388;2023-09-19T13:00:37;93903.91;;;27.27;58.70
10261;BME280;5175;42.606;23.388;2023-09-19T13:03:17;93906.41;;;27.43;54.14
10261;BME280;5175;42.606;23.388;2023-09-19T13:05:52;93901.41;;;27.56;58.38
10261;BME280;5175;42.606;23.388;2023-09-19T13:08:22;93898.47;;;27.92;57.40
10261;BME280;5175;42.606;23.388;2023-09-19T13:11:10;93897.13;;;27.62;51.97